Time;durP1;ratioP1;P1;durP2;ratioP2;P2;SDS_P1;SDS_P2;PMS_P1;PMS_P2;Temp;Humidity;BMP_temperature;BMP_pressure;BME280_temperature;BME280_humidity;BME280_pressure;Samples;Min_cycle;Max_cycle;Signal;HPM_P1;HPM_P2
2024/03/02 00:00:22;;;;;;;;;;;;;;;9.68;100.00;98431.91;5100781;28;20430;-79
2024/03/02 00:02:49;;;;;;;;;;;;;;;9.65;100.00;98427.25;5100158;28;20040;-78
2024/03/02 00:05:21;;;;;;;;;;;;;;;9.63;100.00;98426.91;5095040;28;19924;-78
2024/03/02 00:08:07;;;;;;;;;;;;;;;9.65;100.00;98424.47;5109901;28;19916;-79
2024/03/02 00:10:39;;;;;;;;;;;;;;;9.66;100.00;98426.03;5102016;28;20388;-79
2024/03/02 00:13:04;;;;;;;;;;;;;;;9.65;100.00;98416.97;5098346;28;20315;-80
2024/03/02 00:15:40;;;;;;;;;;;;;;;9.57;100.00;98414.88;5101934;28;19916;-78
2024/03/02 00:18:06;;;;;;;;;;;;;;;9.49;100.00;98417.06;5099692;28;19927;-79
2024/03/02 00:20:31;;;;;;;;;;;;;;;9.43;100.00;98426.28;5100556;28;19920;-79
2024/03/02 00:23:10;;;;;;;;;;;;;;;9.41;100.00;98423.97;5112712;28;19915;-78
2024/03/02 00:25:47;;;;;;;;;;;;;;;9.28;100.00;98423.91;5099745;28;19912;-78
2024/03/02 00:28:29;;;;;;;;;;;;;;;9.27;100.00;98429.88;5104016;28;19958;-77
2024/03/02 00:30:59;;;;;;;;;;;;;;;9.29;100.00;98430.19;5110779;28;19999;-77
2024/03/02 00:33:29;;;;;;;;;;;;;;;9.19;100.00;98418.25;5103135;28;20415;-78
2024/03/02 00:35:56;;;;;;;;;;;;;;;9.09;100.00;98418.53;5112157;28;20278;-79
2024/03/02 00:38:22;;;;;;;;;;;;;;;9.02;100.00;98418.72;5113522;28;20448;-78
2024/03/02 00:40:47;;;;;;;;;;;;;;;8.95;100.00;98414.94;5094022;28;19923;-78
2024/03/02 00:43:31;;;;;;;;;;;;;;;9.06;100.00;98409.13;5105342;28;19915;-78
2024/03/02 00:45:57;;;;;;;;;;;;;;;9.08;100.00;98398.47;5094383;28;19938;-78
2024/03/02 00:48:22;;;;;;;;;;;;;;;9.05;100.00;98393.81;5107290;28;19965;-77
2024/03/02 00:50:51;;;;;;;;;;;;;;;9.01;100.00;98386.84;5112999;28;19920;-78
2024/03/02 00:53:18;;;;;;;;;;;;;;;8.98;100.00;98391.25;5098247;28;19920;-78
2024/03/02 00:55:47;;;;;;;;;;;;;;;9.03;100.00;98384.44;5101019;28;19992;-78
2024/03/02 00:58:12;;;;;;;;;;;;;;;8.99;100.00;98381.75;5098013;28;20435;-78
2024/03/02 01:00:37;;;;;;;;;;;;;;;9.05;100.00;98379.25;5092633;28;19912;-78
2024/03/02 01:03:03;;;;;;;;;;;;;;;9.02;100.00;98380.13;5092769;28;19917;-79
2024/03/02 01:05:29;;;;;;;;;;;;;;;8.99;100.00;98368.75;5092635;28;19912;-79
2024/03/02 01:07:54;;;;;;;;;;;;;;;8.97;100.00;98378.69;5105847;28;19922;-79
2024/03/02 01:10:20;;;;;;;;;;;;;;;8.97;100.00;98376.72;5103208;28;19919;-78
2024/03/02 01:12:45;;;;;;;;;;;;;;;8.96;100.00;98374.38;5112483;28;19915;-78
2024/03/02 01:15:11;;;;;;;;;;;;;;;8.97;100.00;98373.19;5113014;28;20023;-78
2024/03/02 01:17:36;;;;;;;;;;;;;;;9.01;100.00;98376.59;5099104;28;20404;-78
2024/03/02 01:20:01;;;;;;;;;;;;;;;9.03;100.00;98365.16;5112455;28;19926;-78
2024/03/02 01:22:27;;;;;;;;;;;;;;;9.02;100.00;98364.38;5098514;28;20452;-78
2024/03/02 01:24:52;;;;;;;;;;;;;;;9.06;100.00;98367.03;5104213;28;19916;-79
2024/03/02 01:27:18;;;;;;;;;;;;;;;9.02;100.00;98369.88;5105788;28;19915;-78
2024/03/02 01:29:43;;;;;;;;;;;;;;;9.03;100.00;98370.66;5093515;28;19916;-78
2024/03/02 01:32:09;;;;;;;;;;;;;;;9.05;100.00;98368.22;5093929;28;20282;-78
2024/03/02 01:34:34;;;;;;;;;;;;;;;9.10;100.00;98360.22;5103739;28;19916;-78
2024/03/02 01:36:59;;;;;;;;;;;;;;;9.13;100.00;98364.09;5091831;28;19923;-78
2024/03/02 01:39:25;;;;;;;;;;;;;;;9.10;100.00;98364.97;5092142;28;19946;-78
2024/03/02 01:41:50;;;;;;;;;;;;;;;9.12;100.00;98360.56;5094772;28;19920;-78
2024/03/02 01:44:15;;;;;;;;;;;;;;;9.16;100.00;98360.47;5105390;28;19916;-78
2024/03/02 01:46:40;;;;;;;;;;;;;;;9.15;100.00;98364.44;5105613;28;19970;-78
2024/03/02 01:49:06;;;;;;;;;;;;;;;9.21;100.00;98360.72;5093457;28;19977;-78
2024/03/02 01:51:31;;;;;;;;;;;;;;;9.31;100.00;98359.63;5105719;28;19920;-79
2024/03/02 01:53:56;;;;;;;;;;;;;;;9.35;100.00;98352.03;5111516;28;19955;-78
2024/03/02 01:56:22;;;;;;;;;;;;;;;9.34;100.00;98347.72;5097464;28;20003;-77
2024/03/02 01:58:47;;;;;;;;;;;;;;;9.35;100.00;98349.28;5099092;28;20304;-78
2024/03/02 02:01:12;;;;;;;;;;;;;;;9.39;100.00;98351.94;5112559;28;20392;-78
2024/03/02 02:03:38;;;;;;;;;;;;;;;9.34;100.00;98346.97;5091396;28;19977;-78
2024/03/02 02:06:03;;;;;;;;;;;;;;;9.32;100.00;98341.91;5091434;28;20352;-78
2024/03/02 02:08:28;;;;;;;;;;;;;;;9.45;100.00;98338.41;5098156;28;19915;-78
2024/03/02 02:10:54;;;;;;;;;;;;;;;9.40;100.00;98343.22;5112702;28;19922;-79
2024/03/02 02:13:19;;;;;;;;;;;;;;;9.39;100.00;98343.69;5104973;28;19973;-80
2024/03/02 02:15:44;;;;;;;;;;;;;;;9.46;100.00;98349.00;5092468;28;19916;-78
2024/03/02 02:18:10;;;;;;;;;;;;;;;9.36;100.00;98350.06;5091125;28;20420;-77
2024/03/02 02:20:35;;;;;;;;;;;;;;;9.21;100.00;98343.41;5091595;28;19931;-79
2024/03/02 02:23:01;;;;;;;;;;;;;;;9.20;100.00;98347.38;5111101;28;20285;-79
2024/03/02 02:25:27;;;;;;;;;;;;;;;9.17;100.00;98353.72;5099871;28;19916;-79
2024/03/02 02:27:53;;;;;;;;;;;;;;;9.16;100.00;98350.19;5111013;28;19920;-79
2024/03/02 02:30:19;;;;;;;;;;;;;;;9.15;100.00;98353.41;5098297;28;19916;-79
2024/03/02 02:32:44;;;;;;;;;;;;;;;9.14;100.00;98344.38;5112357;28;20388;-79
2024/03/02 02:35:10;;;;;;;;;;;;;;;9.09;100.00;98342.16;5111255;28;19930;-78
2024/03/02 02:37:35;;;;;;;;;;;;;;;9.12;100.00;98346.00;5091036;28;19927;-79
2024/03/02 02:40:01;;;;;;;;;;;;;;;9.16;100.00;98339.19;5105058;28;20007;-78
2024/03/02 02:42:26;;;;;;;;;;;;;;;9.10;100.00;98342.91;5111169;28;19951;-78
2024/03/02 02:44:51;;;;;;;;;;;;;;;9.05;100.00;98337.91;5112295;28;19927;-78
2024/03/02 02:47:16;;;;;;;;;;;;;;;9.09;100.00;98335.84;5112392;28;20384;-79
2024/03/02 02:49:41;;;;;;;;;;;;;;;9.09;100.00;98344.13;5099950;28;20006;-78
2024/03/02 02:52:07;;;;;;;;;;;;;;;9.07;100.00;98343.78;5090693;28;19916;-78
2024/03/02 02:54:32;;;;;;;;;;;;;;;9.12;100.00;98341.25;5091044;28;19920;-78
2024/03/02 02:56:57;;;;;;;;;;;;;;;9.06;100.00;98336.72;5092109;28;19916;-78
2024/03/02 02:59:22;;;;;;;;;;;;;;;8.95;100.00;98337.00;5091115;28;19973;-80
2024/03/02 03:01:48;;;;;;;;;;;;;;;8.97;100.00;98338.13;5109557;28;19923;-79
2024/03/02 03:04:13;;;;;;;;;;;;;;;8.96;100.00;98333.81;5100248;28;19941;-79
2024/03/02 03:06:38;;;;;;;;;;;;;;;9.02;100.00;98336.81;5095723;28;19923;-78
2024/03/02 03:09:03;;;;;;;;;;;;;;;8.93;100.00;98334.69;5099252;28;19952;-79
2024/03/02 03:11:29;;;;;;;;;;;;;;;8.83;100.00;98344.00;5095383;28;19923;-78
2024/03/02 03:13:54;;;;;;;;;;;;;;;8.81;100.00;98334.63;5099432;28;20373;-78
2024/03/02 03:16:19;;;;;;;;;;;;;;;8.87;100.00;98336.41;5090512;28;19916;-78
2024/03/02 03:18:45;;;;;;;;;;;;;;;8.82;100.00;98336.94;5103095;28;19922;-78
2024/03/02 03:21:10;;;;;;;;;;;;;;;8.90;100.00;98332.81;5105801;28;19936;-79
2024/03/02 03:23:35;;;;;;;;;;;;;;;8.86;100.00;98334.88;5091921;28;19965;-78
2024/03/02 03:26:01;;;;;;;;;;;;;;;8.73;100.00;98341.53;5090700;28;20443;-78
2024/03/02 03:28:26;;;;;;;;;;;;;;;8.60;100.00;98335.19;5090653;28;20037;-79
2024/03/02 03:30:51;;;;;;;;;;;;;;;8.69;100.00;98336.09;5090078;28;20393;-78
2024/03/02 03:33:16;;;;;;;;;;;;;;;8.76;100.00;98337.91;5103949;28;19919;-79
2024/03/02 03:35:42;;;;;;;;;;;;;;;8.71;100.00;98341.19;5100417;28;19943;-78
2024/03/02 03:38:07;;;;;;;;;;;;;;;8.69;100.00;98336.09;5104375;28;19921;-78
2024/03/02 03:40:32;;;;;;;;;;;;;;;8.66;100.00;98336.97;5113628;28;20415;-79
2024/03/02 03:42:58;;;;;;;;;;;;;;;8.68;100.00;98342.06;5103168;28;19920;-79
2024/03/02 03:45:25;;;;;;;;;;;;;;;8.66;100.00;98334.22;5113012;28;19920;-78
2024/03/02 03:47:51;;;;;;;;;;;;;;;8.61;100.00;98334.75;5114520;28;19919;-78
2024/03/02 03:50:16;;;;;;;;;;;;;;;8.47;100.00;98333.13;5109853;28;19923;-79
2024/03/02 03:52:41;;;;;;;;;;;;;;;8.41;100.00;98329.34;5106580;28;19916;-78
2024/03/02 03:55:07;;;;;;;;;;;;;;;8.41;100.00;98328.56;5114395;28;19915;-79
2024/03/02 03:57:32;;;;;;;;;;;;;;;8.47;100.00;98332.34;5104912;28;19974;-79
2024/03/02 03:59:57;;;;;;;;;;;;;;;8.48;100.00;98337.44;5095271;28;20365;-78
2024/03/02 04:02:24;;;;;;;;;;;;;;;8.47;100.00;98333.13;5105386;28;19915;-77
2024/03/02 04:04:49;;;;;;;;;;;;;;;8.51;100.00;98335.78;5113740;28;19939;-79
2024/03/02 04:07:15;;;;;;;;;;;;;;;8.49;100.00;98329.94;5114575;28;20380;-78
2024/03/02 04:09:40;;;;;;;;;;;;;;;8.53;100.00;98330.63;5111147;27;20097;-79
2024/03/02 04:12:06;;;;;;;;;;;;;;;8.46;100.00;98336.31;5104683;28;19945;-78
2024/03/02 04:14:31;;;;;;;;;;;;;;;8.37;100.00;98330.63;5114080;28;19923;-79
2024/03/02 04:16:56;;;;;;;;;;;;;;;8.35;100.00;98322.03;5114217;28;19916;-79
2024/03/02 04:19:21;;;;;;;;;;;;;;;8.46;100.00;98326.06;5113814;28;19964;-78
2024/03/02 04:21:47;;;;;;;;;;;;;;;8.41;100.00;98323.06;5114890;28;19924;-78
2024/03/02 04:24:12;;;;;;;;;;;;;;;8.50;100.00;98325.97;5097438;28;20350;-78
2024/03/02 04:26:37;;;;;;;;;;;;;;;8.47;100.00;98326.84;5102870;28;19920;-79
2024/03/02 04:29:02;;;;;;;;;;;;;;;8.42;100.00;98325.38;5115647;27;19916;-79
2024/03/02 04:31:28;;;;;;;;;;;;;;;8.36;100.00;98329.09;5096712;28;19967;-79
2024/03/02 04:33:56;;;;;;;;;;;;;;;8.39;100.00;98333.72;5114309;28;20392;-80
2024/03/02 04:36:22;;;;;;;;;;;;;;;8.38;100.00;98332.94;5101367;28;19947;-78
2024/03/02 04:38:47;;;;;;;;;;;;;;;8.34;100.00;98329.50;5113428;28;19954;-79
2024/03/02 04:41:13;;;;;;;;;;;;;;;8.38;100.00;98337.69;5107830;28;20427;-81
2024/03/02 04:43:38;;;;;;;;;;;;;;;8.33;100.00;98336.22;5093003;28;20023;-78
2024/03/02 04:46:04;;;;;;;;;;;;;;;8.29;100.00;98338.25;5112446;28;19937;-80
2024/03/02 04:48:30;;;;;;;;;;;;;;;8.31;100.00;98346.13;5113654;28;20396;-79
2024/03/02 04:50:56;;;;;;;;;;;;;;;8.29;100.00;98337.47;5100168;28;20006;-79
2024/03/02 04:53:21;;;;;;;;;;;;;;;8.32;100.00;98340.16;5114095;28;19916;-80
2024/03/02 04:56:09;;;;;;;;;;;;;;;8.36;100.00;98340.88;5095500;28;19989;-80
2024/03/02 04:58:35;;;;;;;;;;;;;;;8.34;100.00;98348.00;5095035;28;19912;-79
2024/03/02 05:01:03;;;;;;;;;;;;;;;8.29;100.00;98348.50;5104732;28;19916;-79
2024/03/02 05:03:28;;;;;;;;;;;;;;;8.30;100.00;98352.78;5095661;28;20350;-82
2024/03/02 05:05:54;;;;;;;;;;;;;;;8.28;100.00;98360.69;5113637;28;20380;-79
2024/03/02 05:08:19;;;;;;;;;;;;;;;8.24;100.00;98354.50;5113487;28;19916;-80
2024/03/02 05:10:45;;;;;;;;;;;;;;;8.37;100.00;98356.19;5113160;28;19922;-81
2024/03/02 05:13:10;;;;;;;;;;;;;;;8.39;100.00;98358.50;5097814;28;20057;-80
2024/03/02 05:15:35;;;;;;;;;;;;;;;8.40;100.00;98362.78;5094649;28;19919;-82
2024/03/02 05:18:02;;;;;;;;;;;;;;;8.40;100.00;98358.06;5094905;28;19947;-79
2024/03/02 05:20:27;;;;;;;;;;;;;;;8.25;100.00;98362.34;5102582;28;20392;-81
2024/03/02 05:22:53;;;;;;;;;;;;;;;8.21;100.00;98367.13;5093100;28;20011;-81
2024/03/02 05:25:18;;;;;;;;;;;;;;;8.23;100.00;98369.47;5105318;28;19912;-79
2024/03/02 05:27:43;;;;;;;;;;;;;;;8.34;100.00;98370.78;5102885;28;19928;-82
2024/03/02 05:30:09;;;;;;;;;;;;;;;8.36;100.00;98367.63;5094995;28;19919;-83
2024/03/02 05:32:34;;;;;;;;;;;;;;;8.34;100.00;98370.78;5099638;28;19973;-84
2024/03/02 05:35:00;;;;;;;;;;;;;;;8.27;100.00;98373.69;5114892;28;19920;-81
2024/03/02 05:37:25;;;;;;;;;;;;;;;8.23;100.00;98377.72;5096741;28;20473;-82
2024/03/02 05:39:50;;;;;;;;;;;;;;;8.37;100.00;98385.69;5094794;28;19940;-80
2024/03/02 05:42:16;;;;;;;;;;;;;;;8.33;100.00;98383.00;5107998;28;19920;-81
2024/03/02 05:44:42;;;;;;;;;;;;;;;8.38;100.00;98387.25;5109032;28;19935;-83
2024/03/02 05:47:08;;;;;;;;;;;;;;;8.41;100.00;98378.91;5101595;28;19920;-81
2024/03/02 05:49:34;;;;;;;;;;;;;;;8.42;100.00;98383.19;5100301;28;20365;-82
2024/03/02 05:51:59;;;;;;;;;;;;;;;8.38;100.00;98382.50;5125138;27;20010;-80
2024/03/02 05:54:24;;;;;;;;;;;;;;;8.42;100.00;98382.41;5129045;27;19919;-81
2024/03/02 05:56:49;;;;;;;;;;;;;;;8.51;100.00;98390.84;5092641;28;19920;-83
2024/03/02 05:59:16;;;;;;;;;;;;;;;8.55;100.00;98391.53;5092205;28;20385;-82
2024/03/02 06:01:48;;;;;;;;;;;;;;;8.39;100.00;98395.06;5092207;28;20278;-82
2024/03/02 06:04:13;;;;;;;;;;;;;;;8.42;100.00;98396.19;5105200;28;19968;-81
2024/03/02 06:06:39;;;;;;;;;;;;;;;8.36;100.00;98395.16;5105367;28;20374;-79
2024/03/02 06:09:07;;;;;;;;;;;;;;;8.37;100.00;98402.22;5092260;28;19916;-80
2024/03/02 06:11:33;;;;;;;;;;;;;;;8.17;100.00;98400.25;5107259;28;20008;-79
2024/03/02 06:13:58;;;;;;;;;;;;;;;8.23;100.00;98395.00;5107775;28;19924;-79
2024/03/02 06:16:24;;;;;;;;;;;;;;;8.28;100.00;98394.50;5117878;28;19924;-82
2024/03/02 06:18:50;;;;;;;;;;;;;;;8.40;100.00;98393.06;5117513;28;19927;-81
2024/03/02 06:21:15;;;;;;;;;;;;;;;8.42;100.00;98401.69;5136999;28;19927;-79
2024/03/02 06:23:40;;;;;;;;;;;;;;;8.35;100.00;98405.38;5124045;28;19955;-80
2024/03/02 06:26:06;;;;;;;;;;;;;;;8.37;100.00;98402.22;5110462;28;19919;-82
2024/03/02 06:28:31;;;;;;;;;;;;;;;8.38;100.00;98407.25;5112148;28;19920;-83
2024/03/02 06:30:57;;;;;;;;;;;;;;;8.41;100.00;98409.19;5098780;28;19916;-84
2024/03/02 06:33:22;;;;;;;;;;;;;;;8.52;100.00;98404.19;5112731;28;19965;-84
2024/03/02 06:35:49;;;;;;;;;;;;;;;8.50;100.00;98405.81;5098406;28;20439;-82
2024/03/02 06:38:14;;;;;;;;;;;;;;;8.39;100.00;98413.53;5112193;28;20075;-82
2024/03/02 06:40:40;;;;;;;;;;;;;;;8.51;100.00;98418.38;5098889;28;20380;-81
2024/03/02 06:43:06;;;;;;;;;;;;;;;8.65;100.00;98409.78;5101167;28;20002;-83
2024/03/02 06:45:31;;;;;;;;;;;;;;;8.71;100.00;98416.31;5109560;28;20393;-85
2024/03/02 06:47:56;;;;;;;;;;;;;;;8.60;100.00;98420.53;5110215;28;19922;-81
2024/03/02 06:50:22;;;;;;;;;;;;;;;8.60;100.00;98420.53;5109287;28;19915;-83
2024/03/02 06:52:47;;;;;;;;;;;;;;;8.71;100.00;98416.31;5099908;28;19939;-83
2024/03/02 06:55:12;;;;;;;;;;;;;;;8.68;100.00;98411.66;5096014;28;19920;-80
2024/03/02 06:57:37;;;;;;;;;;;;;;;8.68;100.00;98410.91;5111473;28;19977;-81
2024/03/02 07:00:05;;;;;;;;;;;;;;;8.74;100.00;98414.69;5094016;28;19923;-83
2024/03/02 07:02:30;;;;;;;;;;;;;;;8.65;100.00;98417.28;5092107;28;19916;-81
2024/03/02 07:04:55;;;;;;;;;;;;;;;8.71;100.00;98415.56;5109335;28;19916;-81
2024/03/02 07:07:21;;;;;;;;;;;;;;;8.77;100.00;98411.84;5111658;28;19924;-80
2024/03/02 07:09:47;;;;;;;;;;;;;;;8.81;100.00;98418.03;5093158;28;19920;-80
2024/03/02 07:12:12;;;;;;;;;;;;;;;8.86;100.00;98425.78;5090454;28;20340;-83
2024/03/02 07:17:21;;;;;;;;;;;;;;;9.10;100.00;98420.09;5110869;28;20277;-80
2024/03/02 07:19:46;;;;;;;;;;;;;;;9.22;100.00;98422.88;5091595;28;20053;-81
2024/03/02 07:22:12;;;;;;;;;;;;;;;9.18;100.00;98426.94;5103066;28;19931;-82
2024/03/02 07:24:43;;;;;;;;;;;;;;;9.30;100.00;98424.25;5109995;28;19911;-83
2024/03/02 07:27:09;;;;;;;;;;;;;;;9.38;100.00;98422.88;5109816;28;20076;-82
2024/03/02 07:29:34;;;;;;;;;;;;;;;9.54;100.00;98427.53;5102022;28;20030;-81
2024/03/02 07:32:00;;;;;;;;;;;;;;;9.59;100.00;98426.22;5089813;28;20006;-80
2024/03/02 07:34:25;;;;;;;;;;;;;;;9.58;100.00;98428.25;5101628;28;19920;-80
2024/03/02 07:36:50;;;;;;;;;;;;;;;9.65;100.00;98427.25;5101627;28;19931;-81
2024/03/02 07:39:16;;;;;;;;;;;;;;;9.69;100.00;98422.41;5089690;28;19919;-80
2024/03/02 07:41:41;;;;;;;;;;;;;;;9.82;100.00;98425.22;5090462;28;19916;-82
2024/03/02 07:44:07;;;;;;;;;;;;;;;9.85;100.00;98429.84;5111877;28;19919;-79
2024/03/02 07:46:32;;;;;;;;;;;;;;;9.82;100.00;98428.75;5110599;28;19951;-80
2024/03/02 07:48:57;;;;;;;;;;;;;;;9.82;100.00;98429.50;5110066;28;19939;-80
2024/03/02 07:51:23;;;;;;;;;;;;;;;9.96;100.00;98425.56;5110457;28;19923;-80
2024/03/02 07:53:48;;;;;;;;;;;;;;;10.00;100.00;98433.75;5090128;28;19938;-79
2024/03/02 07:56:13;;;;;;;;;;;;;;;10.14;100.00;98434.09;5104430;28;19919;-80
2024/03/02 07:58:39;;;;;;;;;;;;;;;10.18;100.00;98440.31;5096863;28;19912;-79
2024/03/02 08:01:04;;;;;;;;;;;;;;;9.91;100.00;98441.88;5097217;28;19916;-79
2024/03/02 08:03:32;;;;;;;;;;;;;;;9.84;100.00;98444.84;5104946;28;19916;-79
2024/03/02 08:05:57;;;;;;;;;;;;;;;9.82;100.00;98444.53;5090257;28;20025;-81
2024/03/02 08:08:22;;;;;;;;;;;;;;;9.92;100.00;98448.97;5096917;28;20396;-80
2024/03/02 08:10:48;;;;;;;;;;;;;;;9.98;100.00;98445.22;5110149;28;20713;-82
2024/03/02 08:13:14;;;;;;;;;;;;;;;10.08;100.00;98443.34;5096589;28;19976;-80
2024/03/02 08:15:39;;;;;;;;;;;;;;;10.10;100.00;98444.47;5110548;28;19947;-81
2024/03/02 08:18:04;;;;;;;;;;;;;;;10.23;100.00;98440.97;5090293;28;19916;-79
2024/03/02 08:20:31;;;;;;;;;;;;;;;10.06;100.00;98449.34;5107265;28;20307;-82
2024/03/02 08:22:56;;;;;;;;;;;;;;;9.91;100.00;98450.16;5101813;28;19937;-81
2024/03/02 08:25:22;;;;;;;;;;;;;;;9.82;100.00;98448.81;5101156;28;20424;-81
2024/03/02 08:27:47;;;;;;;;;;;;;;;10.08;100.00;98455.16;5099054;28;20388;-83
2024/03/02 08:30:13;;;;;;;;;;;;;;;10.18;100.00;98453.34;5101393;28;19916;-82
2024/03/02 08:32:38;;;;;;;;;;;;;;;10.25;100.00;98453.13;5098251;28;19915;-81
2024/03/02 08:35:04;;;;;;;;;;;;;;;10.33;100.00;98450.94;5114945;28;19922;-80
2024/03/02 08:37:29;;;;;;;;;;;;;;;10.48;100.00;98450.06;5094465;28;19916;-80
2024/03/02 08:39:55;;;;;;;;;;;;;;;10.58;100.00;98453.69;5093336;28;20647;-81
2024/03/02 08:42:20;;;;;;;;;;;;;;;10.57;100.00;98461.22;5098329;28;19919;-81
2024/03/02 08:44:45;;;;;;;;;;;;;;;10.70;100.00;98452.16;5102804;28;19919;-80
2024/03/02 08:47:11;;;;;;;;;;;;;;;10.91;100.00;98452.22;5092781;28;19916;-81
2024/03/02 08:49:36;;;;;;;;;;;;;;;11.05;100.00;98456.53;5093631;28;20380;-81
2024/03/02 08:52:01;;;;;;;;;;;;;;;11.32;100.00;98461.56;5097962;28;20403;-81
2024/03/02 08:54:27;;;;;;;;;;;;;;;11.40;100.00;98457.31;5101406;28;19927;-81
2024/03/02 08:56:53;;;;;;;;;;;;;;;11.54;100.00;98464.34;5092920;28;19916;-82
2024/03/02 08:59:18;;;;;;;;;;;;;;;11.64;100.00;98458.44;5105684;28;20380;-80
2024/03/02 09:01:44;;;;;;;;;;;;;;;11.88;100.00;98461.56;5109628;28;20080;-79
2024/03/02 09:04:10;;;;;;;;;;;;;;;11.97;100.00;98464.41;5094069;28;19916;-81
2024/03/02 09:06:35;;;;;;;;;;;;;;;11.65;100.00;98462.75;5098159;28;19919;-80
2024/03/02 09:09:00;;;;;;;;;;;;;;;11.46;100.00;98465.81;5114043;28;20436;-80
2024/03/02 09:11:26;;;;;;;;;;;;;;;11.35;100.00;98464.19;5094388;28;20015;-80
2024/03/02 09:13:51;;;;;;;;;;;;;;;11.10;100.00;98466.22;5093681;28;20393;-79
2024/03/02 09:16:17;;;;;;;;;;;;;;;11.05;100.00;98466.81;5093637;28;20032;-80
2024/03/02 09:18:42;;;;;;;;;;;;;;;11.65;100.00;98465.50;5092449;28;19966;-79
2024/03/02 09:21:07;;;;;;;;;;;;;;;12.00;100.00;98466.25;5109767;28;19924;-81
2024/03/02 09:23:33;;;;;;;;;;;;;;;12.18;100.00;98466.38;5112625;28;19912;-80
2024/03/02 09:25:58;;;;;;;;;;;;;;;12.04;100.00;98472.44;5108446;28;20376;-81
2024/03/02 09:28:24;;;;;;;;;;;;;;;11.93;99.66;98471.31;5103121;28;20308;-79
2024/03/02 09:30:49;;;;;;;;;;;;;;;11.68;100.00;98469.38;5099651;28;20380;-80
2024/03/02 09:33:14;;;;;;;;;;;;;;;11.49;100.00;98462.16;5113591;28;19922;-81
2024/03/02 09:35:39;;;;;;;;;;;;;;;11.55;100.00;98460.38;5109922;28;19912;-81
2024/03/02 09:38:05;;;;;;;;;;;;;;;11.71;100.00;98457.41;5093191;28;20006;-80
2024/03/02 09:40:30;;;;;;;;;;;;;;;11.78;100.00;98454.41;5091873;28;19916;-80
2024/03/02 09:42:56;;;;;;;;;;;;;;;12.08;100.00;98450.16;5093092;28;19919;-80
2024/03/02 09:45:23;;;;;;;;;;;;;;;12.49;100.00;98457.28;5091858;28;19920;-80
2024/03/02 09:47:49;;;;;;;;;;;;;;;12.93;96.85;98450.38;5091754;28;19919;-80
2024/03/02 09:50:14;;;;;;;;;;;;;;;13.17;94.36;98450.59;5096952;28;19915;-80
2024/03/02 09:52:40;;;;;;;;;;;;;;;13.64;93.60;98452.19;5111977;28;20353;-80
2024/03/02 09:55:05;;;;;;;;;;;;;;;13.69;90.21;98444.00;5099274;28;19972;-81
2024/03/02 09:57:30;;;;;;;;;;;;;;;13.83;87.91;98445.38;5102626;27;20384;-81
2024/03/02 09:59:56;;;;;;;;;;;;;;;13.86;84.62;98447.25;5092661;28;19919;-79
2024/03/02 10:02:21;;;;;;;;;;;;;;;14.14;85.41;98442.41;5091251;28;19916;-81
2024/03/02 10:04:48;;;;;;;;;;;;;;;14.55;84.47;98438.91;5096016;28;20393;-79
2024/03/02 10:07:14;;;;;;;;;;;;;;;14.77;81.65;98437.91;5101359;28;19934;-81
2024/03/02 10:09:44;;;;;;;;;;;;;;;14.74;79.29;98424.91;5091301;28;20436;-79
2024/03/02 10:12:11;;;;;;;;;;;;;;;14.24;80.49;98430.03;5102185;28;19963;-79
2024/03/02 10:14:36;;;;;;;;;;;;;;;14.42;80.68;98418.88;5095073;28;19916;-80
2024/03/02 10:17:06;;;;;;;;;;;;;;;14.21;81.94;98425.41;5103620;28;19919;-81
2024/03/02 10:19:32;;;;;;;;;;;;;;;14.08;82.80;98422.03;5110946;28;20708;-79
2024/03/02 10:21:59;;;;;;;;;;;;;;;13.84;83.92;98416.38;5111359;28;19928;-80
2024/03/02 10:24:25;;;;;;;;;;;;;;;13.53;85.53;98405.47;5106676;28;20404;-81
2024/03/02 10:26:50;;;;;;;;;;;;;;;13.62;91.17;98408.22;5091241;28;19912;-79
2024/03/02 10:29:16;;;;;;;;;;;;;;;13.39;92.80;98406.06;5092180;28;19920;-79
2024/03/02 10:31:42;;;;;;;;;;;;;;;13.06;92.18;98400.34;5101988;28;19931;-81
2024/03/02 10:34:07;;;;;;;;;;;;;;;13.15;93.78;98396.81;5097625;28;19919;-79
2024/03/02 10:36:34;;;;;;;;;;;;;;;13.03;91.66;98409.56;5111114;28;19915;-80
2024/03/02 10:39:01;;;;;;;;;;;;;;;12.98;90.94;98401.84;5106617;28;19966;-80
2024/03/02 10:41:27;;;;;;;;;;;;;;;13.10;91.33;98395.41;5103149;28;19916;-79
2024/03/02 10:43:58;;;;;;;;;;;;;;;13.25;87.76;98390.06;5106627;28;19927;-80
2024/03/02 10:46:28;;;;;;;;;;;;;;;13.68;85.49;98386.19;5102929;28;19925;-81
2024/03/02 10:48:53;;;;;;;;;;;;;;;13.75;81.58;98389.38;5097302;28;19954;-81
2024/03/02 10:51:18;;;;;;;;;;;;;;;13.74;79.74;98384.31;5111959;28;20091;-80
2024/03/02 10:53:44;;;;;;;;;;;;;;;13.86;82.47;98375.78;5112374;28;19919;-80
2024/03/02 10:56:12;;;;;;;;;;;;;;;13.89;82.54;98382.44;5099840;28;19977;-81
2024/03/02 10:58:40;;;;;;;;;;;;;;;14.18;85.20;98382.66;5104165;28;19943;-79
2024/03/02 11:01:07;;;;;;;;;;;;;;;14.52;79.35;98387.03;5091769;28;20006;-82
2024/03/02 11:03:35;;;;;;;;;;;;;;;14.54;78.06;98386.53;5109921;28;20389;-80
2024/03/02 11:06:06;;;;;;;;;;;;;;;14.63;79.08;98390.06;5096956;28;19959;-80
2024/03/02 11:08:33;;;;;;;;;;;;;;;14.49;79.14;98385.19;5099083;28;20506;-81
2024/03/02 11:11:04;;;;;;;;;;;;;;;14.56;75.80;98382.06;5109251;28;19915;-81
2024/03/02 11:13:33;;;;;;;;;;;;;;;14.29;76.52;98376.56;5100514;28;19919;-81
2024/03/02 11:16:05;;;;;;;;;;;;;;;13.80;77.52;98374.88;5108385;28;19911;-80
2024/03/02 11:18:31;;;;;;;;;;;;;;;13.63;79.16;98375.69;5100465;28;19915;-79
2024/03/02 11:20:57;;;;;;;;;;;;;;;13.46;85.74;98375.25;5095249;28;20011;-80
2024/03/02 11:23:34;;;;;;;;;;;;;;;13.59;85.96;98375.84;5090232;28;20385;-79
2024/03/02 11:26:18;;;;;;;;;;;;;;;13.81;84.52;98379.19;5094329;28;20380;-82
2024/03/02 11:28:44;;;;;;;;;;;;;;;13.90;84.50;98374.88;5096949;28;19922;-78
2024/03/02 11:31:09;;;;;;;;;;;;;;;13.75;82.70;98378.28;5098022;28;19920;-80
2024/03/02 11:33:34;;;;;;;;;;;;;;;13.63;83.34;98370.91;5111472;28;19912;-79
2024/03/02 11:36:03;;;;;;;;;;;;;;;13.90;83.93;98372.09;5110482;28;20435;-80
2024/03/02 11:38:30;;;;;;;;;;;;;;;14.00;85.09;98366.03;5096724;28;19912;-80
2024/03/02 11:40:55;;;;;;;;;;;;;;;13.82;87.91;98363.31;5091507;28;19912;-79
2024/03/02 11:43:21;;;;;;;;;;;;;;;13.99;86.05;98364.50;5090568;28;19916;-79
2024/03/02 11:45:50;;;;;;;;;;;;;;;14.17;82.44;98364.44;5103385;28;19965;-80
2024/03/02 11:48:15;;;;;;;;;;;;;;;14.42;84.15;98362.50;5090754;28;20124;-79
2024/03/02 11:50:40;;;;;;;;;;;;;;;14.29;84.63;98365.47;5110243;28;20038;-80
2024/03/02 11:53:07;;;;;;;;;;;;;;;14.26;83.70;98363.63;5111027;28;19961;-79
2024/03/02 11:55:34;;;;;;;;;;;;;;;14.43;83.24;98364.06;5108596;28;20008;-79
2024/03/02 11:58:00;;;;;;;;;;;;;;;14.57;82.94;98368.94;5108317;28;20047;-80
2024/03/02 12:00:26;;;;;;;;;;;;;;;14.41;83.37;98361.72;5107299;28;19922;-80
2024/03/02 12:03:08;;;;;;;;;;;;;;;14.24;86.51;98363.31;5109293;28;20319;-79
2024/03/02 12:05:35;;;;;;;;;;;;;;;14.23;86.69;98359.00;5113714;28;19912;-78
2024/03/02 12:08:03;;;;;;;;;;;;;;;14.30;86.01;98350.34;5120290;28;19928;-79
2024/03/02 12:10:36;;;;;;;;;;;;;;;14.46;84.76;98358.34;5119241;28;19916;-80
2024/03/02 12:13:21;;;;;;;;;;;;;;;14.50;86.16;98352.59;5114824;28;19900;-80
2024/03/02 12:15:46;;;;;;;;;;;;;;;14.51;84.10;98349.34;5114594;28;19927;-79
2024/03/02 12:18:11;;;;;;;;;;;;;;;14.70;82.89;98354.81;5113198;28;19916;-80
2024/03/02 12:20:36;;;;;;;;;;;;;;;14.68;82.21;98355.28;5116256;28;19926;-79
2024/03/02 12:23:02;;;;;;;;;;;;;;;14.58;81.80;98354.56;5095881;28;20377;-79
2024/03/02 12:25:28;;;;;;;;;;;;;;;14.64;79.90;98354.69;5109910;28;19911;-79
2024/03/02 12:27:54;;;;;;;;;;;;;;;14.61;83.51;98348.03;5094376;28;19912;-84
2024/03/02 12:30:20;;;;;;;;;;;;;;;14.73;79.77;98348.28;5094671;28;20411;-82
2024/03/02 12:32:45;;;;;;;;;;;;;;;14.79;77.91;98346.41;5114096;28;20010;-82
2024/03/02 12:35:14;;;;;;;;;;;;;;;14.74;79.61;98356.16;5113827;28;19968;-78
2024/03/02 12:37:46;;;;;;;;;;;;;;;14.61;77.59;98347.28;5106359;28;20404;-79
2024/03/02 12:40:12;;;;;;;;;;;;;;;14.69;75.41;98350.47;5107971;28;20022;-79
2024/03/02 12:42:38;;;;;;;;;;;;;;;14.60;76.42;98349.28;5106345;28;20375;-79